Time;durP1;ratioP1;P1;durP2;ratioP2;P2;SDS_P1;SDS_P2;PMS_P1;PMS_P2;Temp;Humidity;BMP_temperature;BMP_pressure;BME280_temperature;BME280_humidity;BME280_pressure;Samples;Min_cycle;Max_cycle;Signal;HPM_P1;HPM_P2
2023/06/28 00:01:49;;;;;;;2.55;1.50;;;23.20;54.20;;;;;;5051676;28;20202;-59
2023/06/28 00:04:15;;;;;;;1.75;1.10;;;23.20;54.20;;;;;;5052008;28;20506;-59
2023/06/28 00:06:40;;;;;;;1.42;1.00;;;23.20;54.20;;;;;;5052364;28;20232;-59
2023/06/28 00:09:06;;;;;;;1.98;1.25;;;23.20;54.30;;;;;;5051417;28;20262;-59
2023/06/28 00:11:31;;;;;;;1.70;1.05;;;23.20;54.30;;;;;;5052329;28;20211;-59
2023/06/28 00:13:57;;;;;;;1.95;1.27;;;23.10;54.20;;;;;;5051431;28;20175;-59
2023/06/28 00:16:22;;;;;;;1.70;1.30;;;23.20;54.30;;;;;;5052306;28;20164;-59
2023/06/28 00:18:48;;;;;;;2.25;1.35;;;23.20;54.40;;;;;;5052233;28;20179;-59
2023/06/28 00:21:14;;;;;;;1.50;1.10;;;23.20;54.40;;;;;;5051483;28;20705;-59
2023/06/28 00:23:39;;;;;;;1.58;0.90;;;23.10;54.30;;;;;;5052233;28;20193;-58
2023/06/28 00:26:05;;;;;;;1.90;1.10;;;23.10;54.30;;;;;;5051966;28;20266;-59
2023/06/28 00:28:30;;;;;;;1.83;1.05;;;23.10;54.30;;;;;;5051842;28;20171;-58
2023/06/28 00:30:56;;;;;;;1.67;1.00;;;23.20;54.40;;;;;;5051771;28;20168;-59
2023/06/28 00:33:21;;;;;;;1.10;1.00;;;23.10;54.40;;;;;;5052269;28;20228;-59
2023/06/28 00:35:48;;;;;;;2.20;1.13;;;23.10;54.40;;;;;;5051517;28;20171;-59
2023/06/28 00:38:13;;;;;;;1.92;1.02;;;23.10;54.40;;;;;;5051876;28;20238;-59
2023/06/28 00:40:39;;;;;;;1.42;1.10;;;23.10;54.40;;;;;;5052159;28;20175;-59
2023/06/28 00:43:04;;;;;;;2.28;1.13;;;23.10;54.40;;;;;;5053669;28;20206;-59
2023/06/28 00:45:30;;;;;;;1.08;0.90;;;23.10;55.10;;;;;;5055876;28;20167;-59
2023/06/28 00:47:55;;;;;;;2.10;1.20;;;23.10;54.50;;;;;;5055316;28;20626;-59
2023/06/28 00:50:21;;;;;;;1.17;0.80;;;23.10;54.50;;;;;;5053929;28;20626;-58
2023/06/28 00:52:46;;;;;;;1.40;1.20;;;23.10;54.50;;;;;;5055758;28;20265;-59
2023/06/28 00:55:12;;;;;;;1.75;1.23;;;23.10;54.50;;;;;;5054239;28;20176;-58
2023/06/28 00:57:38;;;;;;;1.95;1.10;;;23.10;54.50;;;;;;5055046;28;20194;-58
2023/06/28 01:00:09;;;;;;;1.17;1.05;;;23.10;54.50;;;;;;5054212;28;20171;-59
2023/06/28 01:02:35;;;;;;;1.80;1.20;;;23.10;54.50;;;;;;5055754;28;20187;-60
2023/06/28 01:05:00;;;;;;;1.30;1.20;;;23.10;54.60;;;;;;5054471;28;20175;-59
2023/06/28 01:07:27;;;;;;;1.42;1.23;;;23.10;54.60;;;;;;5055509;28;20515;-59
2023/06/28 01:09:54;;;;;;;1.10;1.00;;;23.10;54.60;;;;;;5053885;28;20168;-59
2023/06/28 01:12:19;;;;;;;2.78;1.13;;;23.00;54.50;;;;;;5053050;28;20211;-59
2023/06/28 01:14:45;;;;;;;1.35;0.90;;;23.10;54.60;;;;;;5053928;28;20178;-58
2023/06/28 01:17:11;;;;;;;2.72;1.20;;;23.10;54.60;;;;;;5053981;28;20536;-58
2023/06/28 01:19:36;;;;;;;1.50;1.20;;;23.10;54.60;;;;;;5054013;28;20179;-58
2023/06/28 01:22:03;;;;;;;1.55;1.13;;;23.00;54.60;;;;;;5054588;28;20182;-58
2023/06/28 01:24:28;;;;;;;1.23;1.13;;;23.10;54.70;;;;;;5053172;28;20179;-58
2023/06/28 01:26:54;;;;;;;3.70;1.23;;;23.10;54.70;;;;;;5053980;28;20171;-57
2023/06/28 01:29:23;;;;;;;1.65;1.23;;;23.10;54.70;;;;;;5053374;28;20179;-58
2023/06/28 01:31:52;;;;;;;1.83;1.10;;;23.00;54.70;;;;;;5052842;28;20747;-59
2023/06/28 01:34:18;;;;;;;1.30;1.00;;;23.00;54.70;;;;;;5054779;28;20179;-59
2023/06/28 01:36:44;;;;;;;1.50;1.20;;;23.00;54.70;;;;;;5054905;28;20258;-59
2023/06/28 01:39:09;;;;;;;2.05;1.38;;;23.00;54.70;;;;;;5053580;28;20686;-59
2023/06/28 01:41:35;;;;;;;1.80;1.40;;;23.00;54.70;;;;;;5053396;28;20694;-59
2023/06/28 01:44:00;;;;;;;1.33;1.23;;;23.10;54.80;;;;;;5053117;28;20642;-59
2023/06/28 01:46:26;;;;;;;1.67;1.20;;;23.00;54.80;;;;;;5053889;28;20185;-59
2023/06/28 01:48:52;;;;;;;1.48;0.98;;;23.00;54.70;;;;;;5053441;28;20185;-59
2023/06/28 01:51:17;;;;;;;1.75;1.40;;;23.00;54.80;;;;;;5053131;28;20584;-59
2023/06/28 01:53:43;;;;;;;1.50;1.20;;;23.00;54.80;;;;;;5052636;28;20597;-58
2023/06/28 01:56:10;;;;;;;1.17;1.08;;;23.00;54.80;;;;;;5054033;28;20241;-59
2023/06/28 01:58:35;;;;;;;1.58;1.10;;;23.00;54.90;;;;;;5054325;28;20179;-58
2023/06/28 02:01:01;;;;;;;1.33;1.10;;;23.00;54.90;;;;;;5053418;28;20174;-59
2023/06/28 02:03:26;;;;;;;2.03;1.30;;;23.00;54.90;;;;;;5054373;28;20297;-59
2023/06/28 02:05:52;;;;;;;1.35;1.13;;;23.00;54.90;;;;;;5054313;28;20225;-59
2023/06/28 02:08:17;;;;;;;1.73;1.20;;;23.00;54.90;;;;;;5053152;28;20179;-59
2023/06/28 02:10:44;;;;;;;1.25;1.00;;;23.00;55.00;;;;;;5054110;28;20179;-59
2023/06/28 02:13:09;;;;;;;1.83;1.10;;;23.00;55.00;;;;;;5053688;28;20226;-59
2023/06/28 02:15:35;;;;;;;1.23;1.05;;;23.00;55.00;;;;;;5053480;28;20533;-59
2023/06/28 02:18:01;;;;;;;1.38;1.27;;;23.00;55.00;;;;;;5053710;28;20217;-59
2023/06/28 02:20:27;;;;;;;1.20;1.10;;;23.00;55.10;;;;;;5053280;28;20713;-59
2023/06/28 02:22:52;;;;;;;1.27;1.17;;;22.90;55.00;;;;;;5053939;28;20178;-58
2023/06/28 02:25:18;;;;;;;1.45;1.20;;;23.00;55.10;;;;;;5053721;28;20175;-58
2023/06/28 02:27:43;;;;;;;1.85;1.40;;;23.10;55.10;;;;;;5052864;28;20262;-59
2023/06/28 02:30:09;;;;;;;2.72;1.27;;;23.00;55.10;;;;;;5053435;28;20179;-58
2023/06/28 02:32:34;;;;;;;1.88;1.23;;;23.00;55.10;;;;;;5053670;28;20223;-59
2023/06/28 02:35:00;;;;;;;1.70;1.50;;;22.90;55.00;;;;;;5052757;28;20614;-59
2023/06/28 02:37:26;;;;;;;1.48;1.35;;;22.90;55.00;;;;;;5053733;28;20171;-59
2023/06/28 02:39:51;;;;;;;1.98;1.38;;;22.90;55.00;;;;;;5053401;28;20246;-59
2023/06/28 02:42:17;;;;;;;2.38;1.02;;;23.00;55.10;;;;;;5052543;28;20197;-59
2023/06/28 02:44:43;;;;;;;1.52;1.35;;;22.90;55.70;;;;;;5053651;28;20638;-59
2023/06/28 02:47:08;;;;;;;1.73;1.02;;;22.90;55.10;;;;;;5053199;28;20253;-59
2023/06/28 02:49:34;;;;;;;0.98;0.85;;;23.00;55.20;;;;;;5052820;28;20295;-58
2023/06/28 02:51:59;;;;;;;1.50;1.20;;;22.90;55.20;;;;;;5052933;28;20199;-58
2023/06/28 02:54:25;;;;;;;1.27;0.98;;;22.90;55.80;;;;;;5053282;28;20179;-59
2023/06/28 02:56:50;;;;;;;1.40;1.02;;;22.90;55.30;;;;;;5052444;28;20179;-58
2023/06/28 02:59:16;;;;;;;2.30;1.27;;;22.90;55.30;;;;;;5052790;28;20179;-59
2023/06/28 03:01:41;;;;;;;1.10;1.00;;;22.90;55.30;;;;;;5053110;28;20207;-59
2023/06/28 03:04:07;;;;;;;1.45;1.20;;;22.90;55.30;;;;;;5052110;28;20179;-59
2023/06/28 03:06:33;;;;;;;4.68;1.55;;;22.90;55.30;;;;;;5052691;28;20194;-59
2023/06/28 03:08:59;;;;;;;1.70;1.27;;;22.90;55.30;;;;;;5052645;28;20179;-59
2023/06/28 03:11:25;;;;;;;2.00;1.20;;;22.90;55.30;;;;;;5052221;28;20171;-59
2023/06/28 03:13:50;;;;;;;1.60;1.10;;;22.90;55.40;;;;;;5052710;28;20190;-59
2023/06/28 03:16:16;;;;;;;1.85;1.50;;;22.90;55.40;;;;;;5052847;28;20171;-59
2023/06/28 03:18:41;;;;;;;1.40;1.20;;;22.90;55.40;;;;;;5052092;28;20642;-59
2023/06/28 03:21:07;;;;;;;2.35;1.35;;;22.90;55.40;;;;;;5052782;28;20193;-59
2023/06/28 03:23:32;;;;;;;1.15;1.05;;;22.90;55.50;;;;;;5052890;28;20198;-58
2023/06/28 03:25:58;;;;;;;2.40;1.10;;;22.90;55.40;;;;;;5051735;28;20200;-58
2023/06/28 03:28:24;;;;;;;1.45;1.15;;;22.90;55.50;;;;;;5051471;28;20202;-58
2023/06/28 03:30:49;;;;;;;2.15;1.50;;;22.90;55.50;;;;;;5052257;28;20187;-59
2023/06/28 03:33:15;;;;;;;1.23;1.02;;;22.90;55.50;;;;;;5052508;28;20305;-58
2023/06/28 03:35:40;;;;;;;2.28;1.02;;;22.80;55.50;;;;;;5052865;28;20309;-59
2023/06/28 03:38:06;;;;;;;1.80;1.05;;;22.90;55.60;;;;;;5051489;28;20221;-58
2023/06/28 03:40:31;;;;;;;1.17;1.02;;;22.90;55.60;;;;;;5052609;28;20171;-59
2023/06/28 03:42:57;;;;;;;2.13;1.35;;;22.90;55.60;;;;;;5052408;28;20171;-61
2023/06/28 03:45:22;;;;;;;1.55;1.30;;;22.90;55.60;;;;;;5051900;28;20261;-59
2023/06/28 03:47:48;;;;;;;2.13;1.10;;;22.90;55.60;;;;;;5052692;28;20260;-59
2023/06/28 03:50:13;;;;;;;1.88;1.10;;;22.80;55.60;;;;;;5052513;28;20529;-59
2023/06/28 03:52:39;;;;;;;1.23;1.13;;;22.90;56.30;;;;;;5051698;28;20242;-58
2023/06/28 03:55:06;;;;;;;3.30;1.40;;;22.90;55.70;;;;;;5052173;28;20183;-59
2023/06/28 03:57:32;;;;;;;1.58;1.00;;;22.90;55.70;;;;;;5052440;28;20525;-59
2023/06/28 03:59:58;;;;;;;2.58;1.13;;;22.90;56.30;;;;;;5051463;28;20573;-59
2023/06/28 04:02:23;;;;;;;2.63;1.52;;;22.80;55.70;;;;;;5052502;28;20179;-59
2023/06/28 04:04:49;;;;;;;1.65;1.20;;;22.80;55.70;;;;;;5052363;28;20189;-59
2023/06/28 04:07:15;;;;;;;3.08;1.45;;;22.80;55.70;;;;;;5051498;28;20206;-59
2023/06/28 04:09:41;;;;;;;2.28;1.20;;;22.80;55.70;;;;;;5052415;28;20179;-59
2023/06/28 04:12:08;;;;;;;1.52;1.05;;;22.80;55.70;;;;;;5052105;28;20215;-59
2023/06/28 04:14:33;;;;;;;1.10;1.00;;;22.80;55.70;;;;;;5051561;28;20262;-59
2023/06/28 04:16:59;;;;;;;1.80;1.40;;;22.80;55.70;;;;;;5052877;28;20273;-59
2023/06/28 04:19:24;;;;;;;1.95;1.20;;;22.80;56.30;;;;;;5056310;28;20176;-59
2023/06/28 04:21:50;;;;;;;1.70;1.17;;;22.80;55.70;;;;;;5055547;28;20641;-59
2023/06/28 04:24:15;;;;;;;1.75;0.95;;;22.80;55.70;;;;;;5055706;28;20661;-58
2023/06/28 04:26:41;;;;;;;1.42;1.00;;;22.80;55.80;;;;;;5055969;28;20175;-58
2023/06/28 04:29:07;;;;;;;2.05;1.25;;;22.80;55.70;;;;;;5055172;28;20178;-58
2023/06/28 04:31:33;;;;;;;2.40;1.10;;;22.80;55.70;;;;;;5056055;28;20183;-59
2023/06/28 04:33:59;;;;;;;1.27;1.17;;;22.80;55.70;;;;;;5055772;28;20183;-59
2023/06/28 04:36:25;;;;;;;1.63;0.98;;;22.80;55.70;;;;;;5055202;28;20229;-59
2023/06/28 04:38:52;;;;;;;1.10;0.95;;;22.80;55.80;;;;;;5055443;28;20255;-59
2023/06/28 04:41:25;;;;;;;1.80;1.10;;;22.80;55.80;;;;;;5055040;28;20586;-59
2023/06/28 04:43:54;;;;;;;1.55;1.13;;;22.80;55.80;;;;;;5055818;28;20494;-59
2023/06/28 04:46:22;;;;;;;2.20;1.05;;;22.80;55.80;;;;;;5055888;28;20209;-59
2023/06/28 04:48:48;;;;;;;1.33;1.23;;;22.80;55.80;;;;;;5055014;28;20229;-59
2023/06/28 04:51:13;;;;;;;1.38;1.20;;;22.80;55.80;;;;;;5055398;28;20179;-59
2023/06/28 04:53:39;;;;;;;1.42;1.10;;;22.80;55.80;;;;;;5055356;28;20219;-59
2023/06/28 04:56:05;;;;;;;1.38;1.10;;;22.80;55.90;;;;;;5054573;28;20618;-59
2023/06/28 04:58:31;;;;;;;1.83;1.15;;;22.80;55.80;;;;;;5055586;28;20207;-59
2023/06/28 05:00:56;;;;;;;1.25;1.10;;;22.80;55.90;;;;;;5055259;28;20178;-59
2023/06/28 05:03:27;;;;;;;2.55;1.05;;;22.80;55.80;;;;;;5054574;28;20171;-58
2023/06/28 05:05:54;;;;;;;1.45;1.17;;;22.80;55.90;;;;;;5055455;28;20171;-59
2023/06/28 05:08:20;;;;;;;2.78;1.05;;;22.80;55.90;;;;;;5054966;28;20185;-59
2023/06/28 05:10:45;;;;;;;1.15;1.00;;;22.80;55.90;;;;;;5054653;28;20254;-59
2023/06/28 05:13:11;;;;;;;2.03;1.20;;;22.70;55.90;;;;;;5054951;28;20730;-59
2023/06/28 05:15:36;;;;;;;1.20;1.10;;;22.80;55.90;;;;;;5055179;28;20167;-59
2023/06/28 05:18:03;;;;;;;2.08;1.08;;;22.80;55.90;;;;;;5054075;28;20179;-58
2023/06/28 05:20:29;;;;;;;3.75;1.55;;;22.70;55.90;;;;;;5054932;28;20244;-58
2023/06/28 05:23:08;;;;;;;1.10;1.00;;;22.80;56.00;;;;;;5054811;28;20598;-58
2023/06/28 05:25:33;;;;;;;1.33;1.23;;;22.80;56.00;;;;;;5054454;28;20178;-58
2023/06/28 05:27:59;;;;;;;1.58;1.20;;;22.80;56.00;;;;;;5054444;28;20564;-58
2023/06/28 05:30:24;;;;;;;1.60;1.20;;;22.70;55.90;;;;;;5054205;28;20637;-58
2023/06/28 05:32:50;;;;;;;1.42;0.93;;;22.70;55.90;;;;;;5054791;28;20669;-59
2023/06/28 05:35:15;;;;;;;1.17;1.05;;;22.70;55.90;;;;;;5054389;28;20309;-59
2023/06/28 05:37:41;;;;;;;1.25;1.10;;;22.70;55.90;;;;;;5054205;28;20268;-59
2023/06/28 05:40:08;;;;;;;0.85;0.85;;;22.70;56.00;;;;;;5054208;28;20223;-59
2023/06/28 05:42:33;;;;;;;1.40;1.05;;;22.70;56.00;;;;;;5054834;28;20309;-59
2023/06/28 05:44:59;;;;;;;2.58;1.38;;;22.70;56.00;;;;;;5053721;28;20257;-59
2023/06/28 05:47:24;;;;;;;2.08;0.90;;;22.70;56.00;;;;;;5054472;28;20171;-59
2023/06/28 05:49:50;;;;;;;1.42;1.02;;;22.70;56.00;;;;;;5054536;28;20171;-59
2023/06/28 05:52:16;;;;;;;1.17;1.08;;;22.70;56.00;;;;;;5053235;28;20295;-59
2023/06/28 05:54:42;;;;;;;1.65;1.48;;;22.70;56.00;;;;;;5054609;28;20183;-59
2023/06/28 05:57:07;;;;;;;1.67;1.08;;;22.70;56.10;;;;;;5054090;28;20175;-59
2023/06/28 05:59:33;;;;;;;1.25;1.13;;;22.70;56.00;;;;;;5053685;28;20171;-59
2023/06/28 06:01:58;;;;;;;2.63;1.13;;;22.70;56.00;;;;;;5053926;28;20630;-59
2023/06/28 06:04:24;;;;;;;1.50;0.90;;;22.70;56.00;;;;;;5054132;28;20203;-59
2023/06/28 06:06:49;;;;;;;1.50;1.40;;;22.70;56.00;;;;;;5053631;28;20171;-59
2023/06/28 06:09:15;;;;;;;1.52;1.10;;;22.70;56.10;;;;;;5053984;28;20550;-59
2023/06/28 06:11:41;;;;;;;2.50;1.25;;;22.70;56.10;;;;;;5054100;28;20198;-59
2023/06/28 06:14:07;;;;;;;1.42;1.15;;;22.70;56.10;;;;;;5053032;28;20274;-59
2023/06/28 06:16:32;;;;;;;1.63;1.10;;;22.70;56.10;;;;;;5053844;28;20650;-59
2023/06/28 06:18:58;;;;;;;1.60;1.20;;;22.70;56.10;;;;;;5053436;28;20181;-59
2023/06/28 06:21:23;;;;;;;2.03;1.40;;;22.70;56.10;;;;;;5053227;28;20203;-58
2023/06/28 06:23:49;;;;;;;1.95;1.25;;;22.70;56.10;;;;;;5054023;28;20198;-58
2023/06/28 06:26:14;;;;;;;1.42;1.33;;;22.70;56.10;;;;;;5053469;28;20175;-58
2023/06/28 06:28:40;;;;;;;3.17;1.30;;;22.70;56.10;;;;;;5053121;28;20225;-58
2023/06/28 06:31:06;;;;;;;3.10;1.23;;;22.70;56.10;;;;;;5053390;28;20604;-58
2023/06/28 06:33:31;;;;;;;1.35;1.25;;;22.70;56.20;;;;;;5053494;28;20248;-59
2023/06/28 06:35:57;;;;;;;1.70;1.20;;;22.70;56.10;;;;;;5052498;28;20224;-59
2023/06/28 06:38:22;;;;;;;1.52;1.25;;;22.70;56.10;;;;;;5053487;28;20561;-59
2023/06/28 06:40:49;;;;;;;1.17;1.10;;;22.70;56.10;;;;;;5052115;28;20171;-59
2023/06/28 06:43:14;;;;;;;2.40;1.15;;;22.70;56.10;;;;;;5053295;28;20183;-59
2023/06/28 06:45:40;;;;;;;1.63;1.05;;;22.70;56.20;;;;;;5053474;28;20175;-59
2023/06/28 06:48:05;;;;;;;1.60;1.13;;;22.70;56.10;;;;;;5052464;28;20179;-59
2023/06/28 06:50:31;;;;;;;1.27;1.17;;;22.70;56.10;;;;;;5053164;28;20171;-59
2023/06/28 06:52:56;;;;;;;2.55;1.38;;;22.70;56.10;;;;;;5053115;28;20214;-59
2023/06/28 06:55:23;;;;;;;1.88;1.25;;;22.70;56.10;;;;;;5052705;28;20197;-59
2023/06/28 06:57:48;;;;;;;1.23;1.13;;;22.70;56.10;;;;;;5053274;28;20282;-59
2023/06/28 07:00:16;;;;;;;1.60;1.23;;;22.70;56.20;;;;;;5052663;28;20681;-59
2023/06/28 07:02:41;;;;;;;2.35;1.25;;;22.70;56.20;;;;;;5052410;28;20174;-70
2023/06/28 07:05:07;;;;;;;2.75;1.27;;;22.70;56.30;;;;;;5052773;28;20571;-67
2023/06/28 07:07:32;;;;;;;2.38;1.35;;;22.70;56.30;;;;;;5053309;28;20609;-66
2023/06/28 07:09:58;;;;;;;1.58;1.35;;;22.70;56.20;;;;;;5051972;28;20177;-66
2023/06/28 07:12:23;;;;;;;2.10;1.40;;;22.70;56.20;;;;;;5052861;28;20242;-65
2023/06/28 07:14:49;;;;;;;1.65;1.20;;;22.70;56.20;;;;;;5053042;28;20171;-68
2023/06/28 07:17:15;;;;;;;3.05;1.75;;;22.70;57.00;;;;;;5051853;28;20690;-69
2023/06/28 07:19:41;;;;;;;2.83;1.60;;;22.70;56.30;;;;;;5052943;28;20185;-67
2023/06/28 07:22:07;;;;;;;3.92;1.85;;;22.70;56.30;;;;;;5052421;28;20182;-64
2023/06/28 07:24:32;;;;;;;5.40;2.50;;;22.70;56.70;;;;;;5052368;28;20216;-64
2023/06/28 07:26:58;;;;;;;4.57;2.88;;;22.60;56.70;;;;;;5052257;28;20179;-65
2023/06/28 07:29:24;;;;;;;5.20;2.50;;;22.60;57.00;;;;;;5052600;28;20195;-65
2023/06/28 07:31:50;;;;;;;3.70;2.50;;;22.50;57.90;;;;;;5051804;28;20222;-66
2023/06/28 07:34:15;;;;;;;5.50;3.30;;;22.40;57.40;;;;;;5052259;28;20228;-66
2023/06/28 07:36:41;;;;;;;5.75;3.38;;;22.50;57.30;;;;;;5052862;28;20175;-64
2023/06/28 07:39:09;;;;;;;5.82;3.08;;;22.50;57.30;;;;;;5051642;28;20227;-65
2023/06/28 07:41:35;;;;;;;5.10;3.30;;;22.50;57.50;;;;;;5052679;28;20622;-65
2023/06/28 07:44:00;;;;;;;4.70;2.90;;;22.40;58.30;;;;;;5051807;28;20269;-67
2023/06/28 07:46:26;;;;;;;4.65;2.92;;;22.40;57.80;;;;;;5052801;28;20170;-66
2023/06/28 07:48:51;;;;;;;6.50;3.15;;;22.40;57.70;;;;;;5052514;28;20216;-65
2023/06/28 07:51:17;;;;;;;6.95;3.33;;;22.40;57.90;;;;;;5052940;28;20254;-66
2023/06/28 07:53:43;;;;;;;6.40;3.63;;;22.40;57.90;;;;;;5056415;28;20341;-65
2023/06/28 07:56:08;;;;;;;6.47;3.85;;;22.40;58.00;;;;;;5056512;28;20175;-66
2023/06/28 07:58:37;;;;;;;8.05;3.90;;;22.40;58.20;;;;;;5055977;28;20625;-66
2023/06/28 08:01:02;;;;;;;4.18;3.40;;;22.40;58.20;;;;;;5056211;28;20178;-66
2023/06/28 08:03:28;;;;;;;4.78;3.28;;;22.40;58.20;;;;;;5056439;28;20539;-66
2023/06/28 08:05:53;;;;;;;5.78;3.55;;;22.40;58.00;;;;;;5055179;28;20171;-66
2023/06/28 08:08:19;;;;;;;5.53;3.03;;;22.40;57.90;;;;;;5055760;28;20171;-65
2023/06/28 08:10:44;;;;;;;5.68;3.53;;;22.40;58.00;;;;;;5055845;28;20171;-65
2023/06/28 08:13:10;;;;;;;6.00;2.97;;;22.50;58.00;;;;;;5054915;28;20213;-65
2023/06/28 08:15:36;;;;;;;7.40;3.30;;;22.50;58.00;;;;;;5056202;28;20179;-64
2023/06/28 08:18:03;;;;;;;5.68;3.63;;;22.50;57.90;;;;;;5055958;28;20183;-65
2023/06/28 08:20:33;;;;;;;6.18;4.43;;;22.50;57.80;;;;;;5055711;28;20193;-64
2023/06/28 08:22:59;;;;;;;4.22;2.80;;;22.50;57.90;;;;;;5055655;28;20626;-65
2023/06/28 08:25:24;;;;;;;5.68;3.53;;;22.50;57.90;;;;;;5056124;28;20171;-65
2023/06/28 08:27:50;;;;;;;6.90;3.45;;;22.50;58.00;;;;;;5055328;28;20207;-65
2023/06/28 08:30:15;;;;;;;8.52;3.38;;;22.50;58.00;;;;;;5055797;28;20172;-66
2023/06/28 08:32:41;;;;;;;7.63;4.00;;;22.50;58.20;;;;;;5055714;28;20220;-66
2023/06/28 08:35:08;;;;;;;5.20;3.75;;;22.50;58.10;;;;;;5055098;28;20175;-67
2023/06/28 08:37:36;;;;;;;7.90;3.78;;;22.50;58.40;;;;;;5055977;28;20512;-65
2023/06/28 08:40:01;;;;;;;6.63;3.30;;;22.40;58.50;;;;;;5055281;28;20211;-66
2023/06/28 08:42:28;;;;;;;7.55;3.88;;;22.40;58.60;;;;;;5055028;28;20182;-65
2023/06/28 08:44:54;;;;;;;7.55;3.70;;;22.40;58.70;;;;;;5055512;28;20187;-66
2023/06/28 08:47:19;;;;;;;5.28;3.42;;;22.40;58.70;;;;;;5053286;28;20688;-66
2023/06/28 08:49:45;;;;;;;7.43;3.97;;;22.30;58.60;;;;;;5054415;28;20198;-65
2023/06/28 08:52:11;;;;;;;5.90;3.72;;;22.30;58.60;;;;;;5055196;28;20580;-65
2023/06/28 08:54:36;;;;;;;7.45;4.10;;;22.40;58.70;;;;;;5053745;28;20172;-64
2023/06/28 08:57:02;;;;;;;6.43;3.88;;;22.30;58.80;;;;;;5053901;28;20191;-66
2023/06/28 08:59:27;;;;;;;6.03;3.80;;;22.40;58.90;;;;;;5055117;28;20179;-67
2023/06/28 09:01:55;;;;;;;5.78;3.60;;;22.40;58.90;;;;;;5053295;28;20221;-66
2023/06/28 09:04:26;;;;;;;7.18;3.70;;;22.40;58.80;;;;;;5054485;28;20183;-66
2023/06/28 09:06:51;;;;;;;5.43;3.45;;;22.40;58.70;;;;;;5055163;28;20183;-66
2023/06/28 09:09:17;;;;;;;5.75;3.30;;;22.50;58.60;;;;;;5052996;28;20168;-65
2023/06/28 09:11:43;;;;;;;7.80;3.70;;;22.50;58.70;;;;;;5053845;28;20183;-65
2023/06/28 09:14:09;;;;;;;10.45;3.70;;;22.50;59.20;;;;;;5054765;28;20186;-65
2023/06/28 09:16:34;;;;;;;4.38;3.47;;;22.60;58.60;;;;;;5053713;28;20203;-61
2023/06/28 09:19:00;;;;;;;8.38;4.22;;;22.50;59.30;;;;;;5053713;28;20209;-63
2023/06/28 09:21:26;;;;;;;6.68;4.47;;;22.50;58.70;;;;;;5055230;28;20174;-63
2023/06/28 09:23:51;;;;;;;8.13;4.20;;;22.50;59.40;;;;;;5054226;28;20646;-62
2023/06/28 09:26:17;;;;;;;6.82;4.10;;;22.40;58.70;;;;;;5054712;28;20186;-63
2023/06/28 09:28:42;;;;;;;6.70;3.45;;;22.40;58.80;;;;;;5054864;28;20244;-63
2023/06/28 09:31:08;;;;;;;7.85;3.90;;;22.40;58.90;;;;;;5054067;28;20254;-64
2023/06/28 09:33:33;;;;;;;7.75;3.88;;;22.30;58.90;;;;;;5054765;28;20234;-64
2023/06/28 09:36:00;;;;;;;6.70;3.80;;;22.30;58.80;;;;;;5054332;28;20180;-63
2023/06/28 09:38:26;;;;;;;10.77;4.38;;;22.20;58.80;;;;;;5053826;28;20223;-63
2023/06/28 09:40:59;;;;;;;8.27;4.30;;;22.20;58.80;;;;;;5054660;28;20206;-62
2023/06/28 09:43:29;;;;;;;7.78;4.75;;;22.30;58.80;;;;;;5054890;28;20242;-63
2023/06/28 09:45:55;;;;;;;6.53;3.95;;;22.30;58.80;;;;;;5054196;28;20175;-63
2023/06/28 09:48:25;;;;;;;6.15;4.07;;;22.20;58.60;;;;;;5054462;28;20656;-64
2023/06/28 09:50:51;;;;;;;6.78;4.00;;;22.30;59.00;;;;;;5053819;28;20182;-63
2023/06/28 09:53:17;;;;;;;8.93;4.18;;;22.30;59.60;;;;;;5054074;28;20226;-64
2023/06/28 09:55:46;;;;;;;5.72;3.63;;;22.30;59.00;;;;;;5054352;28;20198;-63
2023/06/28 09:58:13;;;;;;;8.10;3.80;;;22.30;59.20;;;;;;5053549;28;20638;-63
2023/06/28 10:00:40;;;;;;;9.45;4.32;;;22.30;59.80;;;;;;5054405;28;20186;-63
2023/06/28 10:03:09;;;;;;;6.97;4.07;;;22.30;59.10;;;;;;5054075;28;20183;-64
2023/06/28 10:05:37;;;;;;;6.10;3.65;;;22.30;58.90;;;;;;5053422;28;20179;-64
2023/06/28 10:08:10;;;;;;;7.03;3.90;;;22.30;58.80;;;;;;5054021;28;20206;-63
2023/06/28 10:10:36;;;;;;;10.50;4.60;;;22.30;58.80;;;;;;5054533;28;20266;-62
2023/06/28 10:13:22;;;;;;;5.95;3.90;;;22.30;58.80;;;;;;5053040;28;20219;-63
2023/06/28 10:16:07;;;;;;;7.60;4.13;;;22.30;58.90;;;;;;5052793;28;20187;-62
2023/06/28 10:18:33;;;;;;;7.82;3.90;;;22.30;58.80;;;;;;5052925;28;20171;-61
2023/06/28 10:20:59;;;;;;;6.88;3.65;;;22.30;58.90;;;;;;5051995;28;20178;-62
2023/06/28 10:23:25;;;;;;;9.48;4.07;;;22.30;59.20;;;;;;5054033;28;20175;-62
2023/06/28 10:25:51;;;;;;;11.40;4.45;;;22.30;59.10;;;;;;5053160;28;20228;-62
2023/06/28 10:28:16;;;;;;;6.15;4.38;;;22.40;59.20;;;;;;5053517;28;20179;-62
2023/06/28 10:30:42;;;;;;;5.95;3.95;;;22.40;59.40;;;;;;5052447;28;20175;-63
2023/06/28 10:33:08;;;;;;;7.78;4.35;;;22.30;59.50;;;;;;5052515;28;20222;-63
2023/06/28 10:35:34;;;;;;;8.15;4.13;;;22.40;59.40;;;;;;5053772;28;20228;-63
2023/06/28 10:38:00;;;;;;;10.73;5.18;;;22.40;59.30;;;;;;5051875;28;20174;-62
2023/06/28 10:40:26;;;;;;;10.20;3.97;;;22.40;59.20;;;;;;5052632;28;20667;-62
2023/06/28 10:42:51;;;;;;;7.65;4.15;;;22.40;59.20;;;;;;5052452;28;20195;-62
2023/06/28 10:45:17;;;;;;;6.38;4.00;;;22.40;59.00;;;;;;5053029;28;20177;-63
2023/06/28 10:47:55;;;;;;;8.02;4.03;;;22.50;58.90;;;;;;5051218;28;20179;-62
2023/06/28 10:50:22;;;;;;;11.27;4.53;;;22.50;59.10;;;;;;5053488;28;20274;-63
2023/06/28 10:52:57;;;;;;;10.93;4.70;;;22.50;59.00;;;;;;5053207;28;20237;-62
2023/06/28 10:55:29;;;;;;;9.70;5.30;;;22.60;59.10;;;;;;5052532;28;20175;-62
2023/06/28 10:58:27;;;;;;;6.53;4.20;;;22.70;59.00;;;;;;5053229;28;20182;-63
2023/06/28 11:00:53;;;;;;;9.07;4.22;;;22.70;58.60;;;;;;5040951;28;20540;-63
2023/06/28 11:03:19;;;;;;;9.82;4.95;;;22.70;58.80;;;;;;5052717;28;20175;-63
2023/06/28 11:05:44;;;;;;;7.65;5.85;;;22.70;58.90;;;;;;5053166;28;20171;-63
2023/06/28 11:08:13;;;;;;;8.57;4.88;;;22.70;58.80;;;;;;5052291;28;20191;-63
2023/06/28 11:10:44;;;;;;;7.57;4.22;;;22.70;58.80;;;;;;5052670;28;20171;-62
2023/06/28 11:13:10;;;;;;;6.43;4.75;;;22.70;58.70;;;;;;5052894;28;20215;-63
2023/06/28 11:15:41;;;;;;;9.80;4.78;;;22.60;58.60;;;;;;5052270;28;20178;-62
2023/06/28 11:18:11;;;;;;;8.93;5.55;;;22.70;58.50;;;;;;5052786;28;20175;-62
2023/06/28 11:20:47;;;;;;;7.70;5.00;;;22.70;58.30;;;;;;5052863;28;20209;-62
2023/06/28 11:23:42;;;;;;;7.65;4.90;;;22.60;58.40;;;;;;5051889;28;20179;-63
2023/06/28 11:26:18;;;;;;;6.25;5.28;;;22.70;58.40;;;;;;5051957;28;20175;-63
2023/06/28 11:28:49;;;;;;;8.73;4.95;;;22.70;58.60;;;;;;5051750;28;20182;-63
2023/06/28 11:31:16;;;;;;;7.78;5.00;;;22.80;58.40;;;;;;5051936;28;20179;-64
2023/06/28 11:33:43;;;;;;;6.10;3.92;;;22.80;58.20;;;;;;5052651;28;20215;-64
2023/06/28 11:36:09;;;;;;;6.85;4.07;;;22.90;58.10;;;;;;5051920;28;20222;-63
2023/06/28 11:38:35;;;;;;;7.63;4.95;;;22.80;58.00;;;;;;5052583;28;20369;-62
2023/06/28 11:41:01;;;;;;;9.13;5.13;;;22.80;58.00;;;;;;5052676;28;20171;-63
2023/06/28 11:43:26;;;;;;;9.20;5.07;;;22.90;58.20;;;;;;5052050;28;20174;-66
2023/06/28 11:45:52;;;;;;;8.27;5.43;;;22.90;58.40;;;;;;5052417;28;20179;-65
2023/06/28 11:48:19;;;;;;;8.88;5.03;;;22.90;58.40;;;;;;5052489;28;20282;-66
2023/06/28 11:50:45;;;;;;;7.47;4.07;;;22.90;58.30;;;;;;5052044;28;20175;-65
2023/06/28 11:53:11;;;;;;;6.40;4.00;;;22.90;58.20;;;;;;5052338;28;20538;-65
2023/06/28 11:55:37;;;;;;;6.82;3.60;;;23.00;58.10;;;;;;5051644;28;20171;-65
2023/06/28 11:58:02;;;;;;;5.65;3.60;;;23.00;58.70;;;;;;5050409;28;20677;-65
2023/06/28 12:00:40;;;;;;;5.78;3.45;;;23.10;58.00;;;;;;5052746;28;20198;-66
2023/06/28 12:03:06;;;;;;;8.32;4.05;;;23.10;58.00;;;;;;5052450;28;20174;-66
2023/06/28 12:05:31;;;;;;;8.10;3.63;;;23.00;57.90;;;;;;5051593;28;20556;-66
2023/06/28 12:07:57;;;;;;;6.50;3.30;;;23.10;58.00;;;;;;5052003;28;20175;-65
2023/06/28 12:10:22;;;;;;;6.65;3.33;;;23.10;58.00;;;;;;5052633;28;20175;-65
2023/06/28 12:12:48;;;;;;;5.88;3.22;;;23.10;58.00;;;;;;5051692;28;20211;-64
2023/06/28 12:15:14;;;;;;;4.07;2.95;;;23.10;58.00;;;;;;5052123;28;20190;-64
2023/06/28 12:17:40;;;;;;;4.97;3.08;;;23.00;58.00;;;;;;5052647;28;20172;-65
2023/06/28 12:20:09;;;;;;;7.35;3.88;;;23.00;58.70;;;;;;5051341;28;20682;-64
2023/06/28 12:22:39;;;;;;;5.80;2.95;;;23.00;58.10;;;;;;5052323;28;20316;-64
2023/06/28 12:25:05;;;;;;;4.80;3.55;;;23.00;58.10;;;;;;5051915;28;20214;-64
2023/06/28 12:27:31;;;;;;;3.25;2.67;;;23.00;58.20;;;;;;5051613;28;20187;-64
2023/06/28 12:29:56;;;;;;;3.13;2.80;;;23.00;58.20;;;;;;5052059;28;20544;-65
2023/06/28 12:32:23;;;;;;;5.13;3.00;;;22.90;58.20;;;;;;5051319;28;20373;-66
2023/06/28 12:34:49;;;;;;;5.13;2.67;;;22.90;58.20;;;;;;5052391;28;20172;-65
2023/06/28 12:37:15;;;;;;;4.57;3.13;;;22.90;58.30;;;;;;5052023;28;20676;-65
2023/06/28 12:39:41;;;;;;;3.85;2.78;;;22.90;58.30;;;;;;5054728;28;20235;-65
2023/06/28 12:42:09;;;;;;;4.55;3.08;;;22.90;58.40;;;;;;5055544;28;20228;-65